METAR Data
IDs: Format: Raw Decoded Include TAF

Data at: 1301 UTC 26 Feb 2021

SCEL 261300Z 16006KT 130V190 8000 NSC 19/13 Q1012 NOSIG